Time;durP1;ratioP1;P1;durP2;ratioP2;P2;SDS_P1;SDS_P2;PMS_P1;PMS_P2;Temp;Humidity;BMP_temperature;BMP_pressure;BME280_temperature;BME280_humidity;BME280_pressure;Samples;Min_cycle;Max_cycle;Signal;HPM_P1;HPM_P2
2020/12/01 00:03:30;;;;;;;6.10;3.70;;;28.30;86.90;;;;;;3588434;32;20106;-90
2020/12/01 00:06:08;;;;;;;7.53;3.95;;;28.20;87.90;;;;;;3578809;33;20103;-90
2020/12/01 00:08:49;;;;;;;3.88;2.88;;;28.20;88.40;;;;;;3581767;40;20103;-93
2020/12/01 00:32:55;;;;;;;3.05;1.48;;;27.80;89.60;;;;;;3675450;27;20086;-89
2020/12/01 00:35:27;;;;;;;2.25;1.45;;;27.70;89.30;;;;;;3592548;40;20107;-91
2020/12/01 00:38:00;;;;;;;3.45;2.40;;;27.80;90.10;;;;;;3600554;32;20086;-92
2020/12/01 00:40:28;;;;;;;5.13;3.25;;;27.80;88.50;;;;;;3582041;40;20091;-90
2020/12/01 00:45:46;;;;;;;2.80;1.50;;;27.70;89.60;;;;;;2967821;30;20548;-92
2020/12/01 00:53:48;;;;;;;2.05;1.20;;;27.50;89.70;;;;;;3903046;27;19983;-88
2020/12/01 00:56:23;;;;;;;3.05;1.50;;;27.50;89.00;;;;;;3686850;32;20110;-90
2020/12/01 00:59:14;;;;;;;2.88;1.50;;;27.50;88.90;;;;;;3632551;32;20091;-90
2020/12/01 01:02:41;;;;;;;2.47;1.35;;;27.40;88.80;;;;;;3573441;40;20107;-91
2020/12/01 01:42:38;;;;;;;2.65;1.80;;;26.80;89.90;;;;;;3575106;40;20223;-92
2020/12/01 01:47:44;;;;;;;4.45;2.58;;;26.50;89.20;;;;;;3531040;30;20107;-92
2020/12/01 01:50:21;;;;;;;3.85;2.50;;;26.60;89.30;;;;;;3620162;32;20095;-92
2020/12/01 01:56:28;;;;;;;3.83;2.20;;;26.50;88.20;;;;;;3569655;32;20168;-91
2020/12/01 01:58:58;;;;;;;3.30;2.20;;;26.50;88.80;;;;;;3548986;40;20081;-92
2020/12/01 02:01:48;;;;;;;4.15;2.45;;;26.50;88.40;;;;;;3638020;32;20085;-90
2020/12/01 02:04:18;;;;;;;3.33;2.20;;;26.50;88.70;;;;;;3556627;40;20085;-89
2020/12/01 02:06:52;;;;;;;3.38;1.80;;;26.40;89.20;;;;;;3556593;40;20095;-92
2020/12/01 02:09:35;;;;;;;3.42;1.90;;;26.30;89.50;;;;;;3643758;32;20095;-91
2020/12/01 02:12:06;;;;;;;3.60;1.75;;;26.30;89.80;;;;;;3590072;40;20153;-92
2020/12/01 02:14:57;;;;;;;6.78;3.15;;;26.40;89.10;;;;;;3649338;32;20095;-92
2020/12/01 02:17:29;;;;;;;3.05;1.73;;;26.30;89.70;;;;;;3716824;32;20083;-91
2020/12/01 02:20:13;;;;;;;3.33;0.80;;;26.30;88.50;;;;;;3620551;32;20323;-90
2020/12/01 02:26:37;;;;;;;1.05;0.80;;;26.20;87.40;;;;;;3868805;34;21070;-92
2020/12/01 02:37:46;;;;;;;3.22;0.77;;;26.10;88.30;;;;;;4053321;34;21142;31
2020/12/01 02:59:45;;;;;;;1.13;0.40;;;26.30;87.00;;;;;;3113716;34;20358;-92
2020/12/01 03:02:18;;;;;;;0.65;0.47;;;26.20;87.20;;;;;;3555798;40;20131;-92
2020/12/01 03:04:47;;;;;;;0.45;0.25;;;26.20;86.40;;;;;;3650514;32;20095;-92
2020/12/01 03:07:25;;;;;;;0.32;0.30;;;26.30;86.70;;;;;;3626433;32;20088;-90
2020/12/01 03:09:54;;;;;;;2.60;0.50;;;26.30;86.40;;;;;;3626628;32;20293;-90
2020/12/01 03:12:32;;;;;;;0.55;0.30;;;26.20;86.40;;;;;;3638887;32;20072;-92
2020/12/01 03:15:01;;;;;;;0.57;0.30;;;26.20;86.30;;;;;;3596560;32;20304;-92
2020/12/01 03:17:28;;;;;;;0.75;0.35;;;26.20;86.70;;;;;;3643943;32;20075;-89
2020/12/01 03:19:57;;;;;;;0.38;0.30;;;26.20;86.70;;;;;;3606826;32;20076;-89
2020/12/01 03:22:27;;;;;;;4.05;0.95;;;26.20;86.50;;;;;;3620707;32;20096;-90
2020/12/01 03:25:00;;;;;;;0.45;0.30;;;26.10;86.60;;;;;;3660136;32;20095;-91
2020/12/01 03:27:29;;;;;;;1.10;0.40;;;26.10;87.20;;;;;;3583213;40;20094;-92
2020/12/01 11:35:11;;;;;;;5.20;2.73;;;24.80;92.00;;;;;;3808809;32;20449;-87
2020/12/01 11:37:38;;;;;;;5.03;2.65;;;24.80;92.00;;;;;;3698621;32;20198;-87
2020/12/01 11:40:07;;;;;;;5.57;2.78;;;24.80;92.10;;;;;;3617521;32;20114;-83
2020/12/01 11:42:34;;;;;;;3.45;1.85;;;24.90;92.10;;;;;;3639128;32;20088;-84
2020/12/01 11:45:01;;;;;;;2.85;1.83;;;24.90;92.10;;;;;;3651335;32;20084;-84
2020/12/01 11:47:28;;;;;;;2.92;2.25;;;24.80;92.40;;;;;;3605646;32;20343;-87
2020/12/01 11:49:54;;;;;;;6.43;2.55;;;24.90;92.20;;;;;;3625155;32;20123;-87
2020/12/01 11:52:21;;;;;;;4.68;2.42;;;25.00;92.10;;;;;;3650276;32;20091;-87
2020/12/01 11:54:48;;;;;;;3.53;1.80;;;25.10;91.70;;;;;;3613317;32;20084;-88
2020/12/01 11:57:14;;;;;;;3.30;1.90;;;25.00;91.60;;;;;;3628819;32;20096;-88
2020/12/01 11:59:41;;;;;;;4.28;1.88;;;24.90;92.10;;;;;;3572826;32;20118;-86
2020/12/01 12:02:08;;;;;;;1.30;1.17;;;24.80;92.70;;;;;;3563935;40;20103;-89
2020/12/01 12:04:35;;;;;;;6.05;1.20;;;24.80;93.20;;;;;;3629993;32;20063;-88
2020/12/01 12:07:01;;;;;;;3.78;0.93;;;24.60;94.20;;;;;;3648980;32;20091;-89
2020/12/01 12:09:28;;;;;;;3.47;1.08;;;24.50;93.90;;;;;;3626015;32;20084;-86
2020/12/01 12:11:55;;;;;;;4.38;2.25;;;24.60;94.40;;;;;;3644579;32;20352;-86
2020/12/01 12:14:21;;;;;;;4.00;1.30;;;24.80;94.40;;;;;;3582302;40;20095;-86
2020/12/01 12:16:48;;;;;;;2.72;1.20;;;24.80;93.60;;;;;;3628237;32;20092;-85
2020/12/01 12:19:14;;;;;;;1.25;0.68;;;24.80;93.80;;;;;;3643842;32;20087;-87
2020/12/01 12:21:41;;;;;;;0.98;0.68;;;24.80;93.70;;;;;;3588489;32;20427;-87
2020/12/01 12:24:08;;;;;;;2.13;0.60;;;24.90;94.30;;;;;;3655505;32;20091;-85
2020/12/01 12:26:35;;;;;;;1.80;0.80;;;25.00;94.40;;;;;;3589565;32;20095;-87
2020/12/01 12:29:02;;;;;;;1.13;0.82;;;25.30;94.00;;;;;;3559763;40;20096;-87
2020/12/01 12:31:29;;;;;;;1.92;1.48;;;25.60;94.20;;;;;;3565584;32;20100;-88
2020/12/01 12:34:18;;;;;;;1.92;1.08;;;25.80;93.90;;;;;;3563363;40;20109;-88
2020/12/01 12:36:44;;;;;;;2.17;1.23;;;26.00;91.50;;;;;;3577780;32;20131;-88
2020/12/01 12:39:12;;;;;;;5.47;2.80;;;26.20;92.50;;;;;;3564383;40;20100;-88
2020/12/01 12:41:41;;;;;;;1.73;1.00;;;26.30;92.20;;;;;;3642962;34;20113;-87
2020/12/01 12:44:09;;;;;;;1.17;0.80;;;26.40;90.80;;;;;;3660604;32;20087;-87
2020/12/01 12:46:37;;;;;;;2.97;1.45;;;26.60;90.50;;;;;;3594618;40;20091;-87
2020/12/01 12:49:05;;;;;;;1.95;1.00;;;26.70;90.70;;;;;;3633829;32;20102;-89
2020/12/01 12:51:32;;;;;;;1.98;0.70;;;27.00;91.00;;;;;;3627517;32;20102;-88
2020/12/01 12:54:01;;;;;;;3.00;0.47;;;27.10;90.00;;;;;;3639982;32;20095;-86
2020/12/01 12:56:27;;;;;;;1.40;0.60;;;26.90;89.90;;;;;;3639164;32;20087;-88
2020/12/01 12:58:54;;;;;;;5.95;0.98;;;26.80;90.30;;;;;;3622066;32;20173;-87
2020/12/01 13:01:21;;;;;;;2.33;1.00;;;26.90;90.80;;;;;;3591363;32;20395;-90
2020/12/01 13:03:49;;;;;;;3.60;0.85;;;26.90;90.50;;;;;;3610108;32;20103;-86
2020/12/01 13:10:37;;;;;;;1.38;0.80;;;26.90;90.50;;;;;;3515857;33;20084;-87
2020/12/01 13:13:04;;;;;;;3.25;0.90;;;26.80;90.60;;;;;;3581655;33;20096;-87
2020/12/01 13:15:50;;;;;;;2.53;1.08;;;26.80;90.30;;;;;;3675270;32;20426;-87
2020/12/01 13:18:21;;;;;;;2.15;0.90;;;26.70;90.60;;;;;;3649780;32;20104;-85
2020/12/01 13:20:50;;;;;;;1.80;0.90;;;26.70;90.60;;;;;;3571716;40;20092;-86
2020/12/01 13:23:23;;;;;;;2.60;0.70;;;26.80;90.60;;;;;;3590641;32;20363;-88
2020/12/01 13:25:50;;;;;;;2.50;2.25;;;26.80;90.50;;;;;;3611983;32;20128;-87
2020/12/01 13:28:17;;;;;;;2.00;0.73;;;26.80;90.70;;;;;;3648680;32;20145;-87
2020/12/01 13:34:08;;;;;;;1.10;0.90;;;27.00;90.90;;;;;;3642067;32;20091;-86
2020/12/01 13:36:35;;;;;;;0.95;0.60;;;27.10;89.50;;;;;;3613732;32;20084;-88
2020/12/01 13:39:02;;;;;;;1.52;0.90;;;27.10;89.20;;;;;;3585020;32;20114;-86
2020/12/01 13:41:28;;;;;;;1.85;1.33;;;27.10;88.90;;;;;;3570997;40;20099;-87
2020/12/01 13:43:55;;;;;;;3.65;1.55;;;27.20;88.40;;;;;;3606510;32;20110;-91
2020/12/01 13:46:22;;;;;;;3.70;2.10;;;27.20;88.90;;;;;;3620228;32;20178;-89
2020/12/01 13:48:58;;;;;;;2.15;1.40;;;27.40;89.50;;;;;;3642995;32;20428;-89
2020/12/01 13:51:24;;;;;;;1.55;1.08;;;27.50;88.40;;;;;;3617876;32;20384;-89
2020/12/01 13:53:51;;;;;;;2.10;0.90;;;27.70;87.30;;;;;;3581121;32;20087;-86
2020/12/01 13:56:18;;;;;;;3.83;1.92;;;27.80;87.90;;;;;;3644894;32;20076;-88
2020/12/01 13:58:47;;;;;;;4.63;1.60;;;28.00;87.40;;;;;;3620064;32;20295;-88
2020/12/01 14:01:15;;;;;;;2.65;1.20;;;28.20;86.00;;;;;;3589192;32;20088;-88
2020/12/01 14:03:45;;;;;;;2.50;1.05;;;28.20;85.30;;;;;;3636984;32;20096;-88
2020/12/01 14:09:43;;;;;;;1.48;0.80;;;28.40;86.00;;;;;;3522405;33;20096;-88
2020/12/01 14:12:14;;;;;;;0.98;0.50;;;28.70;83.80;;;;;;3552925;40;20091;-86
2020/12/01 14:14:44;;;;;;;0.90;0.50;;;28.50;82.70;;;;;;3645952;32;20082;-86
2020/12/01 14:17:17;;;;;;;3.03;1.30;;;28.60;83.10;;;;;;3583669;40;20317;-86
2020/12/01 14:19:44;;;;;;;1.10;0.32;;;28.80;84.90;;;;;;3674874;32;20142;-85
2020/12/01 14:22:10;;;;;;;0.73;0.35;;;28.90;81.50;;;;;;3610031;32;20107;-88
2020/12/01 14:24:49;;;;;;;0.90;0.63;;;28.80;83.40;;;;;;3701689;32;20103;-88
2020/12/01 14:27:19;;;;;;;1.42;0.85;;;28.90;83.30;;;;;;3655588;32;20161;-88
2020/12/01 14:30:08;;;;;;;0.80;0.50;;;29.30;82.50;;;;;;3574190;40;20115;-87
2020/12/01 14:32:44;;;;;;;1.48;0.50;;;29.70;82.10;;;;;;3616432;32;20103;-88
2020/12/01 14:36:19;;;;;;;1.10;0.50;;;29.80;81.30;;;;;;3584338;32;20111;-88
2020/12/01 14:38:34;;;;;;;0.77;0.50;;;29.70;80.60;;;;;;3576586;40;20111;-88
2020/12/01 14:41:03;;;;;;;0.65;0.43;;;30.10;81.00;;;;;;3634247;32;20114;-88
2020/12/01 14:47:54;;;;;;;1.63;0.38;;;30.20;78.90;;;;;;3540683;40;20146;-88
2020/12/01 14:50:50;;;;;;;0.95;0.52;;;30.20;79.30;;;;;;3637437;33;20386;-88
2020/12/01 14:54:24;;;;;;;1.08;0.47;;;30.30;79.00;;;;;;3571317;40;20150;-87
2020/12/01 14:57:16;;;;;;;0.90;0.50;;;30.40;78.60;;;;;;3584167;33;20389;-88
2020/12/01 15:00:09;;;;;;;0.73;0.50;;;30.20;77.30;;;;;;3630979;32;20083;-88
2020/12/01 15:03:05;;;;;;;0.20;0.20;;;30.10;78.00;;;;;;3690317;32;20107;-87
2020/12/01 15:05:39;;;;;;;1.05;0.40;;;30.10;78.10;;;;;;3627806;32;20111;-88
2020/12/01 15:08:42;;;;;;;0.68;0.35;;;30.20;79.60;;;;;;3645722;32;20162;-87
2020/12/01 15:11:43;;;;;;;0.82;0.50;;;30.30;79.50;;;;;;3570108;40;20096;-86
2020/12/01 15:14:10;;;;;;;1.02;0.43;;;30.30;79.40;;;;;;3622078;32;20120;-86
2020/12/01 15:17:06;;;;;;;0.98;0.40;;;30.30;80.10;;;;;;3636245;32;20100;-89
2020/12/01 15:19:33;;;;;;;0.82;0.60;;;30.50;79.50;;;;;;3682854;32;20096;-88
2020/12/01 15:22:25;;;;;;;0.50;0.40;;;30.50;79.90;;;;;;3622637;32;20084;-87
2020/12/01 15:25:02;;;;;;;0.63;0.57;;;30.90;76.40;;;;;;3551021;40;20084;-87
2020/12/01 15:27:49;;;;;;;1.75;1.10;;;31.30;75.10;;;;;;3554261;40;20057;-88
2020/12/01 15:30:21;;;;;;;1.80;1.02;;;31.80;73.40;;;;;;3551652;40;20080;-88
2020/12/01 15:32:53;;;;;;;0.75;0.50;;;31.90;74.60;;;;;;3558261;32;20092;-89
2020/12/01 15:35:38;;;;;;;0.73;0.50;;;32.30;72.10;;;;;;3554228;40;20111;-87
2020/12/01 15:38:24;;;;;;;0.98;0.60;;;32.50;69.30;;;;;;3562165;40;20115;-88
2020/12/01 15:40:53;;;;;;;1.35;0.52;;;32.60;72.30;;;;;;3560298;40;20186;-88
2020/12/01 15:43:37;;;;;;;1.67;0.40;;;32.60;70.80;;;;;;3557704;32;20411;-90
2020/12/01 15:46:09;;;;;;;1.02;0.50;;;32.70;72.60;;;;;;3550700;40;20515;-88
2020/12/01 15:48:40;;;;;;;0.55;0.47;;;33.10;71.00;;;;;;3552525;40;20087;-89
2020/12/01 15:51:31;;;;;;;1.02;0.50;;;33.40;70.70;;;;;;3643168;32;20080;-89
2020/12/01 15:54:57;;;;;;;1.10;0.63;;;33.20;68.60;;;;;;3573098;40;20092;-88
2020/12/01 15:57:44;;;;;;;0.60;0.60;;;32.90;65.30;;;;;;3578590;33;20093;-89
2020/12/01 16:00:50;;;;;;;3.03;0.88;;;32.90;68.60;;;;;;3574959;32;20111;-89
2020/12/01 16:03:51;;;;;;;;;;;;;;;;;;;;;
2020/12/01 16:06:59;;;;;;;1.67;0.98;;;33.10;66.90;;;;;;3629871;32;20291;-87
2020/12/01 16:10:16;;;;;;;;;;;;;;;;;;;;;
2020/12/01 16:22:02;;;;;;;0.38;0.30;;;33.90;63.40;;;;;;3582285;40;20373;-85
2020/12/01 16:24:46;;;;;;;0.40;0.40;;;33.50;63.50;;;;;;3591094;40;20099;-88
2020/12/01 16:27:22;;;;;;;0.73;0.50;;;32.80;66.50;;;;;;3632832;32;20375;-87
2020/12/01 16:30:05;;;;;;;0.40;0.30;;;32.60;69.50;;;;;;3608678;32;20095;-88
2020/12/01 16:32:39;;;;;;;0.70;0.45;;;32.20;68.60;;;;;;3638142;32;20092;-89
2020/12/01 16:35:14;;;;;;;0.80;0.50;;;32.10;69.80;;;;;;3654854;32;20098;-89
2020/12/01 16:37:58;;;;;;;0.88;0.60;;;31.90;68.20;;;;;;3631710;32;20119;-89
2020/12/01 16:41:03;;;;;;;0.63;0.40;;;31.80;69.50;;;;;;3662062;32;20370;-85
2020/12/01 16:43:48;;;;;;;2.08;0.57;;;31.50;69.00;;;;;;3647108;32;20161;-88
2020/12/01 16:46:49;;;;;;;0.93;0.60;;;31.40;72.20;;;;;;3634767;32;20399;-87
2020/12/01 16:49:34;;;;;;;1.10;0.80;;;31.40;72.00;;;;;;3665859;32;20087;-88
2020/12/01 16:52:30;;;;;;;1.35;0.40;;;31.40;71.90;;;;;;3601069;32;20123;-87
2020/12/01 16:55:24;;;;;;;1.30;0.57;;;31.20;73.20;;;;;;3581197;40;20090;-87
2020/12/01 16:58:23;;;;;;;1.83;0.40;;;31.60;74.50;;;;;;3644142;32;20091;-89
2020/12/01 17:01:02;;;;;;;0.75;0.60;;;32.60;71.60;;;;;;3648543;32;20421;-88
2020/12/01 17:04:01;;;;;;;0.82;0.63;;;33.10;68.70;;;;;;3583669;40;20111;-86
2020/12/01 17:06:46;;;;;;;1.13;0.55;;;32.50;67.80;;;;;;3591241;40;20102;-88
2020/12/01 17:09:19;;;;;;;2.20;0.80;;;32.00;69.90;;;;;;3645323;32;20138;-89
2020/12/01 17:12:27;;;;;;;1.00;0.57;;;31.70;70.20;;;;;;3576636;32;20099;-87
2020/12/01 17:15:31;;;;;;;1.10;0.50;;;31.60;71.30;;;;;;3590926;32;20383;-88
2020/12/01 17:18:00;;;;;;;1.05;0.70;;;32.00;68.50;;;;;;3594381;40;20095;-91
2020/12/01 17:20:29;;;;;;;0.95;0.40;;;32.70;69.30;;;;;;3660718;32;20083;-89
2020/12/01 17:23:02;;;;;;;0.65;0.50;;;32.90;66.50;;;;;;3666672;32;20103;-88
2020/12/01 17:25:37;;;;;;;3.47;1.25;;;33.10;66.60;;;;;;3584539;32;20114;-88
2020/12/01 17:28:10;;;;;;;0.70;0.57;;;32.90;65.00;;;;;;3634671;32;20090;-89
2020/12/01 17:31:26;;;;;;;0.82;0.60;;;32.30;67.10;;;;;;3619946;32;20106;-91
2020/12/01 17:34:17;;;;;;;1.38;0.98;;;31.60;69.20;;;;;;3592639;32;20406;-89
2020/12/01 17:36:55;;;;;;;9.02;7.13;;;30.80;73.80;;;;;;3658694;32;20079;-89
2020/12/01 17:39:31;;;;;;;7.68;5.07;;;30.00;80.70;;;;;;3584308;40;20091;-89
2020/12/01 17:42:24;;;;;;;4.75;3.92;;;29.20;83.30;;;;;;3658886;32;20099;-87
2020/12/01 17:45:44;;;;;;;7.28;3.22;;;28.60;87.30;;;;;;3646071;32;20115;-87
2020/12/01 17:48:22;;;;;;;3.80;2.45;;;28.20;88.30;;;;;;3632812;33;20317;-85
2020/12/01 17:50:57;;;;;;;8.52;2.15;;;27.90;87.40;;;;;;3533319;40;20069;-88
2020/12/01 17:53:56;;;;;;;3.95;2.20;;;27.30;90.70;;;;;;3620683;33;20336;-89
2020/12/01 17:56:28;;;;;;;4.43;1.73;;;27.40;90.90;;;;;;3582187;33;20093;-89
2020/12/01 17:59:00;;;;;;;2.50;1.70;;;27.10;90.80;;;;;;3584277;33;20081;-88
2020/12/01 18:01:31;;;;;;;2.65;1.50;;;26.80;92.10;;;;;;3648738;33;20104;-88
2020/12/01 18:04:06;;;;;;;2.05;1.60;;;26.80;92.40;;;;;;3587986;33;20112;-87
2020/12/01 18:06:36;;;;;;;1.30;1.20;;;26.90;92.50;;;;;;3589298;32;20101;-88
2020/12/01 18:09:06;;;;;;;1.75;1.50;;;27.20;92.10;;;;;;3622286;32;20085;-87
2020/12/01 18:11:46;;;;;;;2.20;1.48;;;27.70;93.00;;;;;;3587588;32;20487;-87
2020/12/01 18:14:46;;;;;;;3.05;1.35;;;28.00;91.50;;;;;;3582985;33;20127;-89
2020/12/01 18:17:52;;;;;;;3.35;1.20;;;28.30;91.90;;;;;;3623981;33;20112;-88
2020/12/01 18:20:47;;;;;;;2.25;1.02;;;28.70;91.70;;;;;;3594427;40;20309;-89
2020/12/01 18:23:44;;;;;;;1.50;0.70;;;29.20;92.10;;;;;;3609085;32;20083;-89
2020/12/01 18:26:33;;;;;;;0.88;0.80;;;29.80;88.90;;;;;;3644114;32;20115;-88
2020/12/01 18:29:05;;;;;;;0.90;0.60;;;30.00;90.10;;;;;;3651657;32;20091;-88
2020/12/01 18:31:38;;;;;;;1.65;0.63;;;30.30;85.70;;;;;;3642290;32;20095;-89
2020/12/01 18:34:49;;;;;;;1.20;0.47;;;30.50;86.20;;;;;;3713177;32;20335;-89
2020/12/01 18:37:30;;;;;;;1.95;0.70;;;30.60;83.10;;;;;;3585582;40;20103;-90
2020/12/01 18:40:01;;;;;;;0.70;0.60;;;30.70;85.70;;;;;;3635562;32;20136;-89
2020/12/01 18:42:32;;;;;;;1.15;0.77;;;30.20;85.30;;;;;;3583811;40;20095;-90
2020/12/01 18:45:14;;;;;;;2.78;0.60;;;30.50;85.40;;;;;;3647440;32;20075;-89
2020/12/01 18:47:49;;;;;;;1.70;0.85;;;31.00;84.40;;;;;;3579554;40;20088;-90
2020/12/01 18:50:19;;;;;;;0.60;0.60;;;31.40;79.40;;;;;;3673515;32;20086;-88
2020/12/01 18:52:46;;;;;;;1.13;0.65;;;31.50;79.00;;;;;;3594190;32;20091;-90
2020/12/01 18:58:03;;;;;;;0.50;0.50;;;32.20;78.50;;;;;;3670948;32;20098;-90
2020/12/01 19:00:35;;;;;;;0.93;0.60;;;32.20;71.80;;;;;;3652743;32;20095;-89
2020/12/01 19:05:44;;;;;;;0.60;0.43;;;32.50;75.30;;;;;;3622155;30;20968;-90
2020/12/01 19:13:57;;;;;;;0.40;0.40;;;33.10;66.90;;;;;;4092716;32;20369;31
2020/12/01 19:16:57;;;;;;;0.30;0.30;;;32.90;69.10;;;;;;4075360;33;20034;31
2020/12/01 19:19:55;;;;;;;1.10;0.47;;;32.90;70.90;;;;;;3898428;34;20199;-87
2020/12/01 19:22:27;;;;;;;3.25;0.57;;;33.40;68.00;;;;;;3561427;40;20293;-90
2020/12/01 19:24:56;;;;;;;0.35;0.30;;;33.50;68.30;;;;;;3593485;32;20068;-91
2020/12/01 19:35:11;;;;;;;1.58;0.60;;;33.90;67.00;;;;;;3607372;39;20143;-91
2020/12/01 19:41:03;;;;;;;1.25;1.10;;;33.10;65.70;;;;;;3788674;27;20183;31
2020/12/01 19:46:48;;;;;;;1.95;0.90;;;32.30;67.10;;;;;;3570929;40;20148;-91
2020/12/01 19:49:16;;;;;;;1.10;0.57;;;32.10;70.40;;;;;;3634743;32;20100;-90
2020/12/01 19:51:42;;;;;;;0.50;0.50;;;31.70;68.20;;;;;;3635478;32;20081;-91
2020/12/01 19:54:12;;;;;;;1.30;0.50;;;31.40;67.60;;;;;;3611218;32;20128;-88
2020/12/01 19:56:39;;;;;;;1.00;0.50;;;31.50;68.40;;;;;;3612408;32;20092;-90
2020/12/01 19:59:07;;;;;;;0.63;0.55;;;31.60;71.70;;;;;;3568012;40;20077;-90
2020/12/01 20:01:40;;;;;;;1.88;0.75;;;31.40;71.80;;;;;;3619901;32;20089;-87
2020/12/01 20:04:09;;;;;;;2.45;0.95;;;31.20;72.10;;;;;;3537288;40;20117;-90
2020/12/01 20:11:45;;;;;;;1.25;0.50;;;30.60;74.70;;;;;;3571839;40;20325;-90
2020/12/01 20:14:11;;;;;;;1.15;0.80;;;30.20;75.90;;;;;;3600933;32;20091;-88
2020/12/01 20:16:38;;;;;;;1.08;0.85;;;30.10;77.20;;;;;;3613057;32;20065;-88
2020/12/01 20:19:05;;;;;;;0.75;0.50;;;30.20;78.40;;;;;;3557315;40;20084;-90
2020/12/01 20:21:33;;;;;;;2.35;0.60;;;30.00;78.60;;;;;;3562568;32;20091;-88
2020/12/01 20:24:00;;;;;;;1.17;0.40;;;29.80;78.50;;;;;;3606892;32;20088;-88
2020/12/01 20:26:27;;;;;;;1.50;0.50;;;29.50;81.20;;;;;;3572088;32;20096;-88
2020/12/01 20:28:54;;;;;;;3.55;2.55;;;29.50;80.30;;;;;;3671603;32;20080;-88
2020/12/01 20:31:23;;;;;;;1.70;1.33;;;29.70;81.30;;;;;;3603384;32;20107;-89
2020/12/01 20:33:50;;;;;;;3.22;2.05;;;29.50;82.00;;;;;;3558239;32;20088;-89
2020/12/01 20:36:47;;;;;;;2.85;1.80;;;29.80;81.20;;;;;;3563030;40;20092;-87
2020/12/01 20:39:42;;;;;;;2.10;1.88;;;29.50;82.60;;;;;;3630832;32;20139;-84
2020/12/01 20:42:08;;;;;;;2.33;2.13;;;29.30;81.80;;;;;;3596148;32;20099;-86
2020/12/01 20:44:35;;;;;;;2.33;2.13;;;29.80;81.80;;;;;;3622534;32;20103;-90
2020/12/01 20:47:08;;;;;;;2.40;1.58;;;30.20;80.60;;;;;;3655786;32;20084;-85
2020/12/01 20:49:40;;;;;;;3.28;1.20;;;30.50;79.80;;;;;;3575718;32;20340;-89
2020/12/01 20:54:42;;;;;;;1.83;1.20;;;30.80;76.30;;;;;;3310319;30;20095;-90
2020/12/01 20:57:12;;;;;;;2.70;1.25;;;30.90;76.60;;;;;;3631807;32;20379;-86
2020/12/01 20:59:44;;;;;;;1.48;0.80;;;30.90;77.10;;;;;;3683066;32;20087;-88
2020/12/01 21:02:14;;;;;;;2.70;1.60;;;30.90;77.20;;;;;;3582651;32;20096;-87
2020/12/01 21:04:45;;;;;;;4.00;1.20;;;30.80;78.00;;;;;;3551204;40;20155;-89
2020/12/01 21:07:11;;;;;;;2.22;0.90;;;30.70;78.80;;;;;;3542953;40;20123;-86
2020/12/01 21:09:38;;;;;;;3.22;0.90;;;30.30;79.70;;;;;;3534085;33;20093;-88
2020/12/01 21:12:51;;;;;;;4.07;1.30;;;30.40;77.60;;;;;;3620800;33;20111;-86
2020/12/01 21:15:24;;;;;;;2.10;1.27;;;30.30;77.80;;;;;;3529110;40;20093;-87
2020/12/01 21:18:20;;;;;;;1.80;0.90;;;30.20;77.80;;;;;;3578795;33;20085;-88
2020/12/01 21:20:58;;;;;;;1.48;0.90;;;30.00;78.70;;;;;;3529317;40;20085;-86
2020/12/01 21:23:35;;;;;;;1.00;0.80;;;29.70;78.40;;;;;;3618831;33;20092;-87
2020/12/01 21:26:17;;;;;;;2.88;0.80;;;29.60;79.70;;;;;;3593481;33;20520;-86
2020/12/01 21:28:54;;;;;;;1.40;0.50;;;29.40;80.10;;;;;;3520712;40;20089;-87
2020/12/01 21:31:35;;;;;;;0.90;0.50;;;29.20;81.80;;;;;;3597756;33;20085;-87
2020/12/01 21:34:10;;;;;;;0.95;0.70;;;29.00;81.20;;;;;;3589980;33;20120;-86
2020/12/01 21:36:36;;;;;;;0.82;0.57;;;28.80;81.80;;;;;;3572288;33;20168;-86
2020/12/01 21:39:10;;;;;;;0.63;0.57;;;28.80;82.30;;;;;;3530031;33;20108;-88
2020/12/01 21:41:47;;;;;;;1.98;0.60;;;28.60;82.30;;;;;;3559175;33;20105;-88
2020/12/01 21:44:26;;;;;;;0.52;0.50;;;28.50;83.70;;;;;;3552212;32;20103;-88
2020/12/01 21:46:53;;;;;;;1.17;0.50;;;28.60;81.90;;;;;;3564098;32;20117;-87
2020/12/01 21:49:22;;;;;;;1.73;0.90;;;28.60;80.80;;;;;;3615848;32;20073;-85
2020/12/01 21:52:09;;;;;;;0.73;0.68;;;28.40;82.80;;;;;;3546998;40;20119;-86
2020/12/01 21:54:41;;;;;;;1.52;0.80;;;28.40;82.50;;;;;;3611031;32;20108;-86
2020/12/01 21:57:51;;;;;;;1.95;0.65;;;28.30;82.60;;;;;;3631725;32;20100;-83
2020/12/01 22:00:29;;;;;;;1.45;0.73;;;28.30;83.90;;;;;;3553247;40;20097;-84
2020/12/01 22:03:01;;;;;;;0.65;0.43;;;28.40;84.00;;;;;;3552756;40;20093;-85
2020/12/01 22:06:07;;;;;;;0.75;0.60;;;28.50;83.90;;;;;;3623118;32;20467;-85
2020/12/01 22:08:53;;;;;;;0.85;0.70;;;28.50;82.80;;;;;;3555118;32;20092;-85
2020/12/01 22:11:45;;;;;;;1.17;0.77;;;28.60;82.60;;;;;;3551627;40;20084;-85
2020/12/01 22:14:29;;;;;;;3.05;0.68;;;28.50;83.00;;;;;;3542676;40;20104;-84
2020/12/01 22:17:31;;;;;;;1.83;0.60;;;28.40;82.80;;;;;;3552658;32;20096;-85
2020/12/01 22:20:12;;;;;;;2.72;1.00;;;28.40;83.50;;;;;;3582149;32;20104;-85
2020/12/01 22:22:55;;;;;;;1.90;0.80;;;28.10;82.90;;;;;;3628012;32;20103;-86
2020/12/01 22:25:55;;;;;;;1.00;0.65;;;27.90;84.80;;;;;;3564887;32;20100;-85
2020/12/01 22:28:59;;;;;;;1.73;0.95;;;27.90;85.10;;;;;;3583425;33;20105;-86
2020/12/01 22:31:51;;;;;;;2.78;1.05;;;28.00;85.20;;;;;;3586495;33;20135;-84
2020/12/01 22:34:54;;;;;;;3.75;2.22;;;28.00;86.00;;;;;;3576157;33;20093;-85
2020/12/01 22:37:27;;;;;;;4.47;1.48;;;27.90;87.30;;;;;;3599090;33;20104;-85
2020/12/01 22:39:55;;;;;;;2.40;1.70;;;27.90;85.70;;;;;;3604972;32;20087;-84
2020/12/01 22:42:31;;;;;;;3.13;1.60;;;27.90;86.10;;;;;;3613863;32;20147;-84
2020/12/01 22:45:18;;;;;;;2.75;1.65;;;27.70;86.10;;;;;;3632294;32;20089;-87
2020/12/01 22:48:18;;;;;;;3.72;2.03;;;27.70;86.10;;;;;;3596555;32;20097;-86
2020/12/01 22:51:04;;;;;;;3.88;2.10;;;27.70;87.70;;;;;;3601626;32;20080;-88
2020/12/01 22:53:40;;;;;;;3.35;1.90;;;27.70;87.00;;;;;;3619507;32;20136;-86
2020/12/01 22:56:33;;;;;;;3.83;2.33;;;27.60;87.80;;;;;;3592728;32;20088;-87
2020/12/01 22:59:00;;;;;;;3.83;2.65;;;27.60;87.80;;;;;;3562182;32;20253;-85
2020/12/01 23:01:27;;;;;;;4.43;2.08;;;27.50;88.00;;;;;;3597464;32;20092;-86
2020/12/01 23:03:56;;;;;;;5.40;1.90;;;27.50;88.60;;;;;;3556672;40;20144;-84
2020/12/01 23:07:00;;;;;;;2.28;1.60;;;27.50;88.80;;;;;;3562609;32;20112;-85
2020/12/01 23:09:40;;;;;;;4.57;1.77;;;27.50;88.60;;;;;;3548119;40;20085;-85
2020/12/01 23:12:13;;;;;;;6.75;2.92;;;27.50;89.00;;;;;;3592224;32;20085;-84
2020/12/01 23:17:22;;;;;;;3.72;1.67;;;27.40;89.20;;;;;;3610256;32;20060;-83
2020/12/01 23:19:49;;;;;;;2.22;1.42;;;27.20;89.20;;;;;;3610127;32;20095;-84
2020/12/01 23:22:44;;;;;;;2.17;1.50;;;27.10;89.90;;;;;;3578233;40;20103;-84
2020/12/01 23:25:31;;;;;;;3.28;1.90;;;27.10;90.00;;;;;;3590126;32;20108;-84
2020/12/01 23:28:05;;;;;;;6.95;2.42;;;27.10;89.80;;;;;;3671149;32;20103;-86
2020/12/01 23:30:34;;;;;;;3.53;2.30;;;27.10;89.70;;;;;;3609947;32;20112;-86
2020/12/01 23:33:19;;;;;;;5.72;2.38;;;27.10;89.70;;;;;;3618869;32;20412;-88
2020/12/01 23:35:46;;;;;;;3.90;2.70;;;27.10;90.10;;;;;;3577967;32;20136;-87
2020/12/01 23:38:22;;;;;;;5.13;2.67;;;27.10;90.20;;;;;;3642917;32;20304;-86
2020/12/01 23:40:52;;;;;;;5.25;3.03;;;27.10;90.10;;;;;;3565803;40;20095;-88
2020/12/01 23:43:53;;;;;;;6.22;3.47;;;27.10;90.10;;;;;;3571335;40;20100;-86
2020/12/01 23:46:21;;;;;;;7.03;3.70;;;27.10;90.50;;;;;;3606349;32;20072;-85
2020/12/01 23:48:56;;;;;;;6.28;3.78;;;27.10;90.00;;;;;;3573938;32;20479;-86
2020/12/01 23:51:31;;;;;;;6.43;4.28;;;27.10;90.00;;;;;;3636178;32;20131;-85
2020/12/01 23:53:59;;;;;;;7.85;3.58;;;27.20;90.40;;;;;;3556205;40;20076;-85
2020/12/01 23:56:26;;;;;;;4.57;2.78;;;27.20;90.20;;;;;;3555843;40;20136;-87
2020/12/01 23:58:54;;;;;;;4.18;2.72;;;27.20;90.30;;;;;;3602668;32;20080;-88
